Time;durP1;ratioP1;P1;durP2;ratioP2;P2;SDS_P1;SDS_P2;PMS_P1;PMS_P2;Temp;Humidity;BMP_temperature;BMP_pressure;BME280_temperature;BME280_humidity;BME280_pressure;Samples;Min_cycle;Max_cycle;Signal;HPM_P1;HPM_P2
2022/06/16 00:00:37;;;;;;;5.87;4.30;;;;;;;;;;4975307;28;20389;-52
2022/06/16 00:03:04;;;;;;;11.23;4.60;;;;;;;;;;4975357;28;20544;-52
2022/06/16 00:05:33;;;;;;;5.80;4.50;;;;;;;;;;4975275;28;20378;-53
2022/06/16 00:07:59;;;;;;;6.27;4.23;;;;;;;;;;4975082;28;20460;-53
2022/06/16 00:10:25;;;;;;;5.93;3.90;;;;;;;;;;4975136;28;20406;-52
2022/06/16 00:12:51;;;;;;;5.43;3.90;;;;;;;;;;4973602;28;20442;-52
2022/06/16 00:15:20;;;;;;;4.37;3.97;;;;;;;;;;4975149;28;20437;-52
2022/06/16 00:17:46;;;;;;;5.80;3.83;;;;;;;;;;4975079;28;20386;-52
2022/06/16 00:20:12;;;;;;;3.93;3.63;;;;;;;;;;4974933;28;20406;-53
2022/06/16 00:22:39;;;;;;;4.70;4.23;;;;;;;;;;4974558;28;20405;-52
2022/06/16 00:25:05;;;;;;;6.20;3.47;;;;;;;;;;4974935;28;20414;-52
2022/06/16 00:27:32;;;;;;;5.70;4.10;;;;;;;;;;4974088;28;20454;-55
2022/06/16 00:29:58;;;;;;;4.30;3.90;;;;;;;;;;4974770;28;20758;-53
2022/06/16 00:32:24;;;;;;;5.60;4.10;;;;;;;;;;4974522;28;20400;-52
2022/06/16 00:34:50;;;;;;;5.83;4.33;;;;;;;;;;4974797;28;20402;-52
2022/06/16 00:37:16;;;;;;;9.83;4.53;;;;;;;;;;4974560;28;20378;-53
2022/06/16 00:39:42;;;;;;;4.90;3.93;;;;;;;;;;4974564;28;20409;-53
2022/06/16 00:42:15;;;;;;;7.30;4.40;;;;;;;;;;4974472;28;20425;-54
2022/06/16 00:44:43;;;;;;;6.70;4.40;;;;;;;;;;4974444;28;20380;-52
2022/06/16 00:47:09;;;;;;;5.60;3.87;;;;;;;;;;4974468;28;20435;-53
2022/06/16 00:49:36;;;;;;;11.00;3.70;;;;;;;;;;4973043;28;20394;-53
2022/06/16 00:52:06;;;;;;;5.57;4.00;;;;;;;;;;4974735;28;20491;-52
2022/06/16 00:54:34;;;;;;;4.93;4.07;;;;;;;;;;4974174;28;20871;-52
2022/06/16 00:57:06;;;;;;;4.23;3.83;;;;;;;;;;4974323;28;20434;-52
2022/06/16 00:59:32;;;;;;;4.17;3.80;;;;;;;;;;4974334;28;20414;-52
2022/06/16 01:01:58;;;;;;;9.43;5.60;;;;;;;;;;4973541;28;20466;-52
2022/06/16 01:07:10;;;;;;;5.13;3.60;;;;;;;;;;4973943;28;20522;-52
2022/06/16 01:09:38;;;;;;;5.10;4.00;;;;;;;;;;4973926;28;20468;-54
2022/06/16 01:15:07;;;;;;;6.43;3.67;;;;;;;;;;4973968;28;20406;-52
2022/06/16 01:17:33;;;;;;;7.30;3.83;;;;;;;;;;4973920;28;20403;-53
2022/06/16 01:20:02;;;;;;;8.90;3.97;;;;;;;;;;4973737;28;20861;-55
2022/06/16 01:22:41;;;;;;;8.03;3.43;;;;;;;;;;4973619;28;20773;-52
2022/06/16 01:25:10;;;;;;;4.70;4.30;;;;;;;;;;4973812;28;20799;-52
2022/06/16 01:27:54;;;;;;;6.20;3.97;;;;;;;;;;4973667;28;20955;-53
2022/06/16 01:30:28;;;;;;;3.20;3.00;;;;;;;;;;4973711;28;20393;-52
2022/06/16 01:33:05;;;;;;;5.70;3.30;;;;;;;;;;4972215;28;20687;-52
2022/06/16 01:35:37;;;;;;;5.47;3.90;;;;;;;;;;4973565;28;20380;-52
2022/06/16 01:38:14;;;;;;;4.23;3.73;;;;;;;;;;4973554;28;20405;-52
2022/06/16 01:40:45;;;;;;;4.23;3.13;;;;;;;;;;4972861;28;20871;-52
2022/06/16 01:43:30;;;;;;;6.20;3.83;;;;;;;;;;4973210;28;20477;-54
2022/06/16 01:46:05;;;;;;;5.10;4.30;;;;;;;;;;4973467;28;20459;-52
2022/06/16 01:48:33;;;;;;;4.50;3.90;;;;;;;;;;4972054;28;20442;-53
2022/06/16 01:51:01;;;;;;;7.47;3.43;;;;;;;;;;4973611;28;20409;-52
2022/06/16 01:53:35;;;;;;;4.13;3.53;;;;;;;;;;4973104;28;20944;-52
2022/06/16 01:56:14;;;;;;;4.43;3.93;;;;;;;;;;4973401;28;20373;-52
2022/06/16 01:58:41;;;;;;;5.37;4.27;;;;;;;;;;4973768;28;20375;-55
2022/06/16 02:01:11;;;;;;;4.40;3.57;;;;;;;;;;4973225;28;20415;-52
2022/06/16 02:03:42;;;;;;;6.00;3.43;;;;;;;;;;4973110;28;20454;-52
2022/06/16 02:06:13;;;;;;;3.80;3.50;;;;;;;;;;4973292;28;20416;-52
2022/06/16 02:08:40;;;;;;;8.00;3.50;;;;;;;;;;4973166;28;20387;-52
2022/06/16 02:11:11;;;;;;;5.43;3.40;;;;;;;;;;4973019;28;20892;-52
2022/06/16 02:13:39;;;;;;;3.37;3.07;;;;;;;;;;4972444;28;20413;-55
2022/06/16 02:16:09;;;;;;;3.87;3.50;;;;;;;;;;4971818;28;20431;-52
2022/06/16 02:18:36;;;;;;;3.37;3.07;;;;;;;;;;4973005;28;20375;-52
2022/06/16 02:21:13;;;;;;;4.57;3.57;;;;;;;;;;4973012;28;20455;-52
2022/06/16 02:23:40;;;;;;;5.80;4.10;;;;;;;;;;4972690;28;20449;-55
2022/06/16 02:26:06;;;;;;;5.57;4.23;;;;;;;;;;4971647;28;20375;-52
2022/06/16 02:28:41;;;;;;;4.73;3.60;;;;;;;;;;4972916;28;20434;-53
2022/06/16 02:31:18;;;;;;;4.50;4.10;;;;;;;;;;4972891;28;20404;-52
2022/06/16 02:33:47;;;;;;;5.73;4.50;;;;;;;;;;4972760;28;20688;-52
2022/06/16 02:36:19;;;;;;;7.80;4.13;;;;;;;;;;4972967;28;20435;-52
2022/06/16 02:38:45;;;;;;;6.57;4.23;;;;;;;;;;4972817;28;20384;-52
2022/06/16 02:41:30;;;;;;;5.53;4.10;;;;;;;;;;4972791;28;20394;-52
2022/06/16 02:44:15;;;;;;;4.87;4.47;;;;;;;;;;4972536;28;20423;-52
2022/06/16 02:46:48;;;;;;;7.60;4.87;;;;;;;;;;4972770;28;20431;-52
2022/06/16 02:49:17;;;;;;;6.70;4.30;;;;;;;;;;4972777;28;20384;-52
2022/06/16 02:51:49;;;;;;;5.50;4.97;;;;;;;;;;4975556;28;20438;-52
2022/06/16 02:54:20;;;;;;;6.50;5.00;;;;;;;;;;4976573;28;20404;-52
2022/06/16 02:57:07;;;;;;;6.57;4.70;;;;;;;;;;4976489;28;20885;-52
2022/06/16 02:59:38;;;;;;;8.33;4.90;;;;;;;;;;4976368;28;20462;-52
2022/06/16 03:02:05;;;;;;;6.73;4.50;;;;;;;;;;4976284;28;20487;-52
2022/06/16 03:04:34;;;;;;;7.27;3.97;;;;;;;;;;4976189;28;20421;-52
2022/06/16 03:07:00;;;;;;;8.53;4.53;;;;;;;;;;4976302;28;20460;-52
2022/06/16 03:09:26;;;;;;;5.33;4.27;;;;;;;;;;4976393;28;20402;-52
2022/06/16 03:11:52;;;;;;;4.90;4.43;;;;;;;;;;4975671;28;20547;-52
2022/06/16 03:14:19;;;;;;;12.80;4.60;;;;;;;;;;4976151;28;20396;-52
2022/06/16 03:16:45;;;;;;;7.97;4.10;;;;;;;;;;4976073;28;20480;-52
2022/06/16 03:19:11;;;;;;;6.07;4.70;;;;;;;;;;4976142;28;20492;-52
2022/06/16 03:21:37;;;;;;;8.73;6.00;;;;;;;;;;4975991;28;20872;-52
2022/06/16 03:24:03;;;;;;;7.13;4.47;;;;;;;;;;4975755;28;20896;-51
2022/06/16 03:26:29;;;;;;;4.57;4.17;;;;;;;;;;4975928;28;20383;-52
2022/06/16 03:28:55;;;;;;;12.73;4.60;;;;;;;;;;4975897;28;20410;-52
2022/06/16 03:31:21;;;;;;;6.90;4.90;;;;;;;;;;4975837;28;20383;-52
2022/06/16 03:33:48;;;;;;;5.00;4.60;;;;;;;;;;4975637;28;20424;-52
2022/06/16 03:36:15;;;;;;;5.37;4.87;;;;;;;;;;4975947;28;20467;-52
2022/06/16 03:38:44;;;;;;;7.63;4.27;;;;;;;;;;4975765;28;20409;-53
2022/06/16 03:41:11;;;;;;;6.00;4.70;;;;;;;;;;4975654;28;20912;-52
2022/06/16 03:43:37;;;;;;;5.83;4.77;;;;;;;;;;4975551;28;20889;-52
2022/06/16 03:46:05;;;;;;;6.07;4.70;;;;;;;;;;4975602;28;20379;-52
2022/06/16 03:48:31;;;;;;;4.30;3.80;;;;;;;;;;4975584;28;20513;-52
2022/06/16 03:50:57;;;;;;;9.57;4.90;;;;;;;;;;4975463;28;20414;-52
2022/06/16 03:53:23;;;;;;;5.00;4.50;;;;;;;;;;4975302;28;20920;-52
2022/06/16 03:55:49;;;;;;;4.80;4.40;;;;;;;;;;4975453;28;20412;-52
2022/06/16 03:58:16;;;;;;;7.20;4.70;;;;;;;;;;4975457;28;20396;-52
2022/06/16 04:00:42;;;;;;;4.77;4.33;;;;;;;;;;4975699;28;20808;-52
2022/06/16 04:05:53;;;;;;;4.87;4.47;;;;;;;;;;4975568;28;20410;-54
2022/06/16 04:08:19;;;;;;;6.33;5.00;;;;;;;;;;4975322;28;20456;-52
2022/06/16 04:10:46;;;;;;;9.13;5.33;;;;;;;;;;4975118;28;20405;-52
2022/06/16 04:13:12;;;;;;;6.97;4.90;;;;;;;;;;4974822;28;20387;-52
2022/06/16 04:15:38;;;;;;;5.17;4.67;;;;;;;;;;4975089;28;20408;-52
2022/06/16 04:18:04;;;;;;;4.63;4.23;;;;;;;;;;4974943;28;20956;-54
2022/06/16 04:20:30;;;;;;;10.30;4.87;;;;;;;;;;4974990;28;20387;-55
2022/06/16 04:22:56;;;;;;;7.27;5.00;;;;;;;;;;4974676;28;20475;-52
2022/06/16 04:25:30;;;;;;;5.10;4.60;;;;;;;;;;4975037;28;20416;-55
2022/06/16 04:27:57;;;;;;;4.50;4.20;;;;;;;;;;4974887;28;20474;-52
2022/06/16 04:30:23;;;;;;;4.90;4.40;;;;;;;;;;4974768;28;20462;-53
2022/06/16 04:32:49;;;;;;;5.17;4.77;;;;;;;;;;4974413;28;20403;-53
2022/06/16 04:35:15;;;;;;;5.30;4.77;;;;;;;;;;4974787;28;20420;-55
2022/06/16 04:37:41;;;;;;;7.57;5.63;;;;;;;;;;4974817;28;20399;-52
2022/06/16 04:40:07;;;;;;;7.57;5.00;;;;;;;;;;4974700;28;20920;-52
2022/06/16 04:42:33;;;;;;;8.83;6.10;;;;;;;;;;4974233;28;20943;-53
2022/06/16 04:44:59;;;;;;;8.70;5.47;;;;;;;;;;4974597;28;20382;-52
2022/06/16 04:47:25;;;;;;;8.03;5.77;;;;;;;;;;4974353;28;20607;-52
2022/06/16 04:49:51;;;;;;;5.80;5.30;;;;;;;;;;4975002;28;20913;-52
2022/06/16 04:52:17;;;;;;;6.57;5.77;;;;;;;;;;4974260;28;20487;-52
2022/06/16 04:54:46;;;;;;;7.70;4.53;;;;;;;;;;4974253;28;20858;-52
2022/06/16 04:57:13;;;;;;;9.10;4.80;;;;;;;;;;4974395;28;20458;-55
2022/06/16 04:59:39;;;;;;;7.77;5.13;;;;;;;;;;4974203;28;20405;-54
2022/06/16 05:02:05;;;;;;;5.13;4.63;;;;;;;;;;4974058;28;20399;-53
2022/06/16 05:04:31;;;;;;;8.10;5.50;;;;;;;;;;4973984;28;20424;-53
2022/06/16 05:06:57;;;;;;;6.53;4.33;;;;;;;;;;4974042;28;20453;-55
2022/06/16 05:09:26;;;;;;;5.23;4.73;;;;;;;;;;4974163;28;20801;-52
2022/06/16 05:11:52;;;;;;;7.80;5.27;;;;;;;;;;4973925;28;20463;-53
2022/06/16 05:14:18;;;;;;;7.77;4.20;;;;;;;;;;4973473;28;20381;-54
2022/06/16 05:16:45;;;;;;;5.03;4.20;;;;;;;;;;4973887;28;20948;-52
2022/06/16 05:19:11;;;;;;;5.00;4.60;;;;;;;;;;4972606;28;20456;-52
2022/06/16 05:21:37;;;;;;;7.70;4.43;;;;;;;;;;4973926;28;20419;-52
2022/06/16 05:24:04;;;;;;;5.10;4.60;;;;;;;;;;4973690;28;20926;-52
2022/06/16 05:26:30;;;;;;;8.93;4.70;;;;;;;;;;4973756;28;20386;-52
2022/06/16 05:28:56;;;;;;;9.93;5.00;;;;;;;;;;4973625;28;20536;-53
2022/06/16 05:31:23;;;;;;;5.67;4.90;;;;;;;;;;4973713;28;20480;-52
2022/06/16 05:33:49;;;;;;;5.50;4.93;;;;;;;;;;4973391;28;20451;-53
2022/06/16 05:36:17;;;;;;;5.50;4.33;;;;;;;;;;4973685;28;20467;-55
2022/06/16 05:38:43;;;;;;;5.80;4.80;;;;;;;;;;4973656;28;20416;-52
2022/06/16 05:41:14;;;;;;;6.90;4.27;;;;;;;;;;4973536;28;20412;-52
2022/06/16 05:43:40;;;;;;;8.27;5.07;;;;;;;;;;4973090;28;20444;-55
2022/06/16 05:46:08;;;;;;;8.23;5.37;;;;;;;;;;4973674;28;20391;-52
2022/06/16 05:48:34;;;;;;;7.67;4.47;;;;;;;;;;4973488;28;20496;-52
2022/06/16 05:51:11;;;;;;;5.50;4.37;;;;;;;;;;4973334;28;20384;-55
2022/06/16 05:53:37;;;;;;;11.63;4.70;;;;;;;;;;4973183;28;20428;-52
2022/06/16 05:56:05;;;;;;;5.50;4.70;;;;;;;;;;4973324;28;20976;-52
2022/06/16 05:58:31;;;;;;;5.07;4.60;;;;;;;;;;4973415;28;20384;-55
2022/06/16 06:00:57;;;;;;;8.50;5.00;;;;;;;;;;4973333;28;20421;-52
2022/06/16 06:03:23;;;;;;;8.87;5.30;;;;;;;;;;4973055;28;20488;-52
2022/06/16 06:05:51;;;;;;;6.87;4.23;;;;;;;;;;4972828;28;20452;-52
2022/06/16 06:16:38;;;;;;;6.00;3.97;;;;;;;;;;4973093;28;20406;-52
2022/06/16 06:19:23;;;;;;;6.80;4.23;;;;;;;;;;4971870;28;20493;-52
2022/06/16 06:22:01;;;;;;;6.70;3.53;;;;;;;;;;4972489;28;20395;-52
2022/06/16 06:24:31;;;;;;;4.47;4.10;;;;;;;;;;4975803;28;20420;-52
2022/06/16 06:26:58;;;;;;;3.80;3.50;;;;;;;;;;4999481;28;20429;-52
2022/06/16 06:29:24;;;;;;;3.83;3.50;;;;;;;;;;4999995;28;20904;-55
2022/06/16 06:31:51;;;;;;;4.30;3.90;;;;;;;;;;4998238;28;20428;-53
2022/06/16 06:34:18;;;;;;;4.17;3.43;;;;;;;;;;4998845;28;20371;-52
2022/06/16 06:36:44;;;;;;;5.67;3.20;;;;;;;;;;4998851;28;20400;-53
2022/06/16 06:39:11;;;;;;;3.30;2.93;;;;;;;;;;4999228;28;20487;-52
2022/06/16 06:41:37;;;;;;;6.73;3.93;;;;;;;;;;4999186;28;20395;-52
2022/06/16 06:44:05;;;;;;;3.67;3.37;;;;;;;;;;4998417;28;20447;-52
2022/06/16 06:46:31;;;;;;;5.93;4.53;;;;;;;;;;4998675;28;20451;-52
2022/06/16 06:48:57;;;;;;;6.40;3.63;;;;;;;;;;4998569;28;20413;-52
2022/06/16 06:51:23;;;;;;;6.43;3.90;;;;;;;;;;4998586;28;20459;-53
2022/06/16 06:53:50;;;;;;;3.90;3.13;;;;;;;;;;4998458;28;20424;-55
2022/06/16 06:56:16;;;;;;;7.70;3.30;;;;;;;;;;4998592;28;20463;-52
2022/06/16 06:58:42;;;;;;;5.03;3.37;;;;;;;;;;4998440;28;20408;-52
2022/06/16 07:01:08;;;;;;;8.83;3.63;;;;;;;;;;4998558;28;20441;-52
2022/06/16 07:03:34;;;;;;;3.87;3.47;;;;;;;;;;4998214;28;20471;-52
2022/06/16 07:06:01;;;;;;;6.10;3.70;;;;;;;;;;4998605;28;20496;-52
2022/06/16 07:08:27;;;;;;;4.40;4.00;;;;;;;;;;4998924;28;20431;-52
2022/06/16 07:10:53;;;;;;;5.50;3.17;;;;;;;;;;4998447;28;20416;-53
2022/06/16 07:13:19;;;;;;;3.87;3.23;;;;;;;;;;4998095;28;20426;-52
2022/06/16 07:15:46;;;;;;;3.53;3.23;;;;;;;;;;4998391;28;20385;-52
2022/06/16 07:18:13;;;;;;;4.60;2.70;;;;;;;;;;4999198;28;20385;-55
2022/06/16 07:20:40;;;;;;;5.40;3.67;;;;;;;;;;4998550;28;20418;-54
2022/06/16 07:23:06;;;;;;;5.63;3.27;;;;;;;;;;4998229;28;20438;-55
2022/06/16 07:25:32;;;;;;;4.23;3.53;;;;;;;;;;4998327;28;20457;-55
2022/06/16 07:28:00;;;;;;;6.30;4.00;;;;;;;;;;4998239;28;20453;-55
2022/06/16 07:30:26;;;;;;;4.13;3.50;;;;;;;;;;4997238;28;20449;-55
2022/06/16 07:32:52;;;;;;;3.50;3.20;;;;;;;;;;4998254;28;20513;-55
2022/06/16 07:35:20;;;;;;;3.40;3.10;;;;;;;;;;4998300;28;20399;-55
2022/06/16 07:37:46;;;;;;;3.83;3.10;;;;;;;;;;4995843;28;20411;-54
2022/06/16 07:40:13;;;;;;;4.17;3.87;;;;;;;;;;4995095;28;20402;-54
2022/06/16 07:42:39;;;;;;;3.80;3.40;;;;;;;;;;4994696;28;20456;-55
2022/06/16 07:45:06;;;;;;;4.53;3.17;;;;;;;;;;4995088;28;20438;-55
2022/06/16 07:47:33;;;;;;;3.63;3.33;;;;;;;;;;4995005;28;20503;-55
2022/06/16 07:50:01;;;;;;;6.63;3.97;;;;;;;;;;4994918;28;20439;-55
2022/06/16 07:52:28;;;;;;;4.10;3.70;;;;;;;;;;4994595;28;20792;-55
2022/06/16 07:54:54;;;;;;;6.20;4.23;;;;;;;;;;4994848;28;20403;-55
2022/06/16 07:57:21;;;;;;;9.17;8.23;;;;;;;;;;4995007;28;20469;-54
2022/06/16 07:59:49;;;;;;;6.00;3.40;;;;;;;;;;4994817;28;20407;-54
2022/06/16 08:02:15;;;;;;;4.63;3.67;;;;;;;;;;4994886;28;20465;-54
2022/06/16 08:04:44;;;;;;;4.77;4.07;;;;;;;;;;4994757;28;20498;-55
2022/06/16 08:07:10;;;;;;;6.20;3.70;;;;;;;;;;4994689;28;20509;-55
2022/06/16 08:09:38;;;;;;;4.10;3.60;;;;;;;;;;4994758;28;20396;-55
2022/06/16 08:12:10;;;;;;;3.27;2.97;;;;;;;;;;4995714;28;20431;-53
2022/06/16 08:14:39;;;;;;;3.40;3.10;;;;;;;;;;4996058;28;20400;-55
2022/06/16 08:17:07;;;;;;;4.87;2.80;;;;;;;;;;4993295;28;20420;-54
2022/06/16 08:19:33;;;;;;;3.20;2.90;;;;;;;;;;4995390;28;20429;-55
2022/06/16 08:21:59;;;;;;;3.27;2.97;;;;;;;;;;4994417;28;21020;-56
2022/06/16 08:24:26;;;;;;;3.20;2.83;;;;;;;;;;4994652;28;20414;-57
2022/06/16 08:26:52;;;;;;;4.03;2.90;;;;;;;;;;4994667;28;20452;-55
2022/06/16 08:29:19;;;;;;;6.90;2.47;;;;;;;;;;4993252;28;20392;-55
2022/06/16 08:31:46;;;;;;;3.73;2.33;;;;;;;;;;4974393;28;20490;-56
2022/06/16 08:34:12;;;;;;;2.73;2.17;;;;;;;;;;4974697;28;20450;-55
2022/06/16 08:36:40;;;;;;;2.87;2.10;;;;;;;;;;4974956;28;20405;-55
2022/06/16 08:39:06;;;;;;;1.97;1.80;;;;;;;;;;4975250;28;20401;-56
2022/06/16 08:41:39;;;;;;;4.83;2.10;;;;;;;;;;4975300;28;20408;-56
2022/06/16 08:44:24;;;;;;;2.00;1.80;;;;;;;;;;4974327;28;20416;-57
2022/06/16 08:47:28;;;;;;;3.30;1.60;;;;;;;;;;4974614;28;20456;-55
2022/06/16 08:49:54;;;;;;;4.07;2.47;;;;;;;;;;4895383;29;20777;-56
2022/06/16 08:52:39;;;;;;;2.07;1.40;;;;;;;;;;4895675;29;20444;-57
2022/06/16 08:55:08;;;;;;;2.27;1.63;;;;;;;;;;4942572;28;20424;-56
2022/06/16 08:57:34;;;;;;;2.70;1.70;;;;;;;;;;4974386;28;20405;-56
2022/06/16 09:00:05;;;;;;;2.90;1.83;;;;;;;;;;4974292;28;20889;-56
2022/06/16 09:02:37;;;;;;;2.60;1.60;;;;;;;;;;4974107;28;20531;-56
2022/06/16 09:05:05;;;;;;;1.77;1.17;;;;;;;;;;4974306;28;20460;-56
2022/06/16 09:07:43;;;;;;;1.53;1.40;;;;;;;;;;4974253;28;20876;-56
2022/06/16 09:10:25;;;;;;;1.80;1.70;;;;;;;;;;4974108;28;20408;-57
2022/06/16 09:12:54;;;;;;;2.00;1.67;;;;;;;;;;4972587;28;20460;-56
2022/06/16 09:15:32;;;;;;;1.50;1.33;;;;;;;;;;4974558;28;20406;-53
2022/06/16 09:18:07;;;;;;;1.40;1.23;;;;;;;;;;4974056;28;20472;-54
2022/06/16 09:20:42;;;;;;;2.60;1.53;;;;;;;;;;4974477;28;20488;-56
2022/06/16 09:23:22;;;;;;;3.90;1.43;;;;;;;;;;4973577;28;20425;-56
2022/06/16 09:25:51;;;;;;;1.83;1.20;;;;;;;;;;4974460;28;20423;-56
2022/06/16 09:28:28;;;;;;;1.33;1.13;;;;;;;;;;4974123;28;20448;-57
2022/06/16 09:30:56;;;;;;;2.07;1.30;;;;;;;;;;4973835;28;20876;-57
2022/06/16 09:33:27;;;;;;;1.73;1.20;;;;;;;;;;4973616;28;20429;-57
2022/06/16 09:35:57;;;;;;;3.17;1.30;;;;;;;;;;4973869;28;20416;-57
2022/06/16 09:38:43;;;;;;;1.63;1.30;;;;;;;;;;4973542;28;20521;-56
2022/06/16 09:44:04;;;;;;;1.20;1.00;;;;;;;;;;4973310;28;20463;-56
2022/06/16 09:46:35;;;;;;;1.80;1.33;;;;;;;;;;4973436;28;20412;-56
2022/06/16 09:49:04;;;;;;;1.93;1.33;;;;;;;;;;4973556;28;20893;-57
2022/06/16 09:51:43;;;;;;;2.27;1.30;;;;;;;;;;4973155;28;20492;-56
2022/06/16 09:54:15;;;;;;;1.30;1.20;;;;;;;;;;4973057;28;20448;-56
2022/06/16 09:56:48;;;;;;;1.33;1.23;;;;;;;;;;4973782;28;20417;-54
2022/06/16 09:59:20;;;;;;;1.20;1.10;;;;;;;;;;4973273;28;20928;-54
2022/06/16 10:01:56;;;;;;;1.37;1.00;;;;;;;;;;4972796;28;20440;-54
2022/06/16 10:04:22;;;;;;;1.77;0.93;;;;;;;;;;4973062;28;20429;-55
2022/06/16 10:06:53;;;;;;;2.87;1.60;;;;;;;;;;4973131;28;20440;-56
2022/06/16 10:09:26;;;;;;;1.13;1.03;;;;;;;;;;4973763;28;20452;-54
2022/06/16 10:11:58;;;;;;;1.10;0.90;;;;;;;;;;4972928;28;20515;-56
2022/06/16 10:14:30;;;;;;;1.23;1.03;;;;;;;;;;4972831;28;20408;-54
2022/06/16 10:17:06;;;;;;;1.57;1.00;;;;;;;;;;4973026;28;20401;-55
2022/06/16 10:19:33;;;;;;;1.43;1.13;;;;;;;;;;4973153;28;20483;-54
2022/06/16 10:22:00;;;;;;;3.73;1.67;;;;;;;;;;4972997;28;20500;-54
2022/06/16 10:24:31;;;;;;;4.07;1.90;;;;;;;;;;4972922;28;20415;-54
2022/06/16 10:26:58;;;;;;;1.20;0.90;;;;;;;;;;4973048;28;20452;-53
2022/06/16 10:29:26;;;;;;;2.77;1.10;;;;;;;;;;4973106;28;20767;-54
2022/06/16 10:31:52;;;;;;;2.10;1.90;;;;;;;;;;4972998;28;20440;-55
2022/06/16 10:34:37;;;;;;;3.40;1.27;;;;;;;;;;4972826;28;20463;-56
2022/06/16 10:37:06;;;;;;;3.10;1.30;;;;;;;;;;4972948;28;20401;-54
2022/06/16 10:39:43;;;;;;;1.80;1.30;;;;;;;;;;4972908;28;20412;-54
2022/06/16 10:42:12;;;;;;;1.73;1.43;;;;;;;;;;4972738;28;20961;-54
2022/06/16 10:44:38;;;;;;;2.27;1.57;;;;;;;;;;4972903;28;20393;-54
2022/06/16 10:47:06;;;;;;;9.83;2.70;;;;;;;;;;4973117;28;20456;-57
2022/06/16 10:49:36;;;;;;;5.90;1.70;;;;;;;;;;4973382;28;20416;-58
2022/06/16 10:52:09;;;;;;;1.67;1.27;;;;;;;;;;4972613;28;20417;-57
2022/06/16 10:54:36;;;;;;;3.43;1.07;;;;;;;;;;4972889;28;20485;-58
2022/06/16 10:57:22;;;;;;;2.30;1.17;;;;;;;;;;4972812;28;20413;-57
2022/06/16 10:59:51;;;;;;;2.07;1.30;;;;;;;;;;4972813;28;20838;-58
2022/06/16 11:02:22;;;;;;;4.40;1.73;;;;;;;;;;4972478;28;20487;-58
2022/06/16 11:04:56;;;;;;;1.70;1.47;;;;;;;;;;4972847;28;20412;-57
2022/06/16 11:07:22;;;;;;;1.40;1.30;;;;;;;;;;4972726;28;20463;-57
2022/06/16 11:09:48;;;;;;;1.60;1.50;;;;;;;;;;4971603;28;20509;-56
2022/06/16 11:12:14;;;;;;;1.57;1.37;;;;;;;;;;4974610;28;20951;-57
2022/06/16 11:14:54;;;;;;;1.53;1.23;;;;;;;;;;4976146;28;20408;-56
2022/06/16 11:17:20;;;;;;;2.20;1.50;;;;;;;;;;4976334;28;20173;-57
2022/06/16 11:20:06;;;;;;;2.20;1.30;;;;;;;;;;4976237;28;20405;-57
2022/06/16 11:22:40;;;;;;;2.47;1.73;;;;;;;;;;4968773;28;20494;-57
2022/06/16 11:25:26;;;;;;;1.80;1.23;;;;;;;;;;4976394;28;20488;-57
2022/06/16 11:28:12;;;;;;;2.23;1.67;;;;;;;;;;4976064;28;20460;-58
2022/06/16 11:30:47;;;;;;;1.73;1.63;;;;;;;;;;4976271;28;20396;-57
2022/06/16 11:36:19;;;;;;;2.10;1.80;;;;;;;;;;4976639;28;20399;-57
2022/06/16 11:38:49;;;;;;;2.80;2.10;;;;;;;;;;4975949;28;20755;-56
2022/06/16 11:41:16;;;;;;;3.20;1.60;;;;;;;;;;4976340;28;20408;-57
2022/06/16 11:43:51;;;;;;;1.57;1.47;;;;;;;;;;4975623;28;20477;-56
2022/06/16 11:46:40;;;;;;;1.47;1.37;;;;;;;;;;4975765;28;20392;-57
2022/06/16 11:49:12;;;;;;;2.70;1.93;;;;;;;;;;4977200;28;20431;-57
2022/06/16 11:51:49;;;;;;;2.13;1.50;;;;;;;;;;4975973;28;20913;-57
2022/06/16 11:54:21;;;;;;;2.00;1.53;;;;;;;;;;4975707;28;20811;-58
2022/06/16 11:57:13;;;;;;;1.57;1.47;;;;;;;;;;4975486;28;20397;-57
2022/06/16 11:59:48;;;;;;;3.20;1.67;;;;;;;;;;4959865;28;20405;-57
2022/06/16 12:02:17;;;;;;;2.07;1.43;;;;;;;;;;4975179;28;20420;-57
2022/06/16 12:04:56;;;;;;;3.07;1.40;;;;;;;;;;4975291;28;20510;-57
2022/06/16 12:07:39;;;;;;;2.90;1.67;;;;;;;;;;4975501;28;20467;-58
2022/06/16 12:10:09;;;;;;;2.43;1.40;;;;;;;;;;4975394;28;20897;-57
2022/06/16 12:12:37;;;;;;;2.47;1.60;;;;;;;;;;4975063;28;20494;-57
2022/06/16 12:15:10;;;;;;;2.63;1.83;;;;;;;;;;4975345;28;20405;-57
2022/06/16 12:18:06;;;;;;;1.50;1.40;;;;;;;;;;4973123;28;20932;-56
2022/06/16 12:20:40;;;;;;;1.77;1.67;;;;;;;;;;4971010;28;20428;-54
2022/06/16 12:23:19;;;;;;;1.83;1.73;;;;;;;;;;4973451;28;20528;-57
2022/06/16 12:26:11;;;;;;;3.47;1.63;;;;;;;;;;4974849;28;20501;-57
2022/06/16 12:28:46;;;;;;;1.47;1.37;;;;;;;;;;4969904;28;20464;-54
2022/06/16 12:31:19;;;;;;;1.60;1.50;;;;;;;;;;4978705;28;20404;-56
2022/06/16 12:33:45;;;;;;;1.57;1.47;;;;;;;;;;4980089;28;20425;-55
2022/06/16 12:36:36;;;;;;;5.53;1.53;;;;;;;;;;4976995;28;20420;-56
2022/06/16 12:39:07;;;;;;;2.07;1.80;;;;;;;;;;4974763;28;20413;-55
2022/06/16 12:41:39;;;;;;;1.60;1.50;;;;;;;;;;4974730;28;20794;-55
2022/06/16 12:44:12;;;;;;;2.70;1.50;;;;;;;;;;4974856;28;20420;-56
2022/06/16 12:46:53;;;;;;;1.70;1.60;;;;;;;;;;4974595;28;20397;-58
2022/06/16 12:49:23;;;;;;;1.60;1.50;;;;;;;;;;4974881;28;20436;-57
2022/06/16 12:51:52;;;;;;;2.83;1.60;;;;;;;;;;4974628;28;20429;-58
2022/06/16 12:54:36;;;;;;;2.37;1.80;;;;;;;;;;4974761;28;20412;-54
2022/06/16 12:57:07;;;;;;;1.97;1.37;;;;;;;;;;4974275;28;20400;-54
2022/06/16 12:59:41;;;;;;;1.83;1.47;;;;;;;;;;4974432;28;20786;-54
2022/06/16 13:02:09;;;;;;;2.23;1.50;;;;;;;;;;4974199;28;20420;-54
2022/06/16 13:04:37;;;;;;;1.93;1.47;;;;;;;;;;4974135;28;20415;-54
2022/06/16 13:07:12;;;;;;;1.90;1.80;;;;;;;;;;4974090;28;20512;-55
2022/06/16 13:09:41;;;;;;;2.40;1.70;;;;;;;;;;4974142;28;20592;-54
2022/06/16 13:12:17;;;;;;;2.50;1.60;;;;;;;;;;4972731;28;20882;-58
2022/06/16 13:14:58;;;;;;;2.03;1.47;;;;;;;;;;4956025;28;20957;-55
2022/06/16 13:17:27;;;;;;;3.73;1.77;;;;;;;;;;4954663;29;20405;-57
2022/06/16 13:19:57;;;;;;;2.80;1.70;;;;;;;;;;4955065;28;20902;-57
2022/06/16 13:22:37;;;;;;;2.50;1.57;;;;;;;;;;4954304;28;20430;-57
2022/06/16 13:25:08;;;;;;;3.27;1.40;;;;;;;;;;4954506;29;20972;-57
2022/06/16 13:27:37;;;;;;;1.83;1.73;;;;;;;;;;4955214;28;20454;-56
2022/06/16 13:30:07;;;;;;;2.90;1.57;;;;;;;;;;4955698;29;20409;-56
2022/06/16 13:32:43;;;;;;;2.30;1.60;;;;;;;;;;4956726;28;20468;-54
2022/06/16 13:35:15;;;;;;;2.13;1.93;;;;;;;;;;4959177;28;20409;-54
2022/06/16 13:37:48;;;;;;;1.50;1.40;;;;;;;;;;4954494;29;20882;-54
2022/06/16 13:40:14;;;;;;;2.33;1.83;;;;;;;;;;4954343;29;20406;-54
2022/06/16 13:42:50;;;;;;;4.03;1.80;;;;;;;;;;4953780;29;20446;-54
2022/06/16 13:45:31;;;;;;;3.27;1.57;;;;;;;;;;4954130;28;20421;-54
2022/06/16 13:48:12;;;;;;;2.03;1.93;;;;;;;;;;4954134;29;20949;-54
2022/06/16 13:50:46;;;;;;;1.80;1.70;;;;;;;;;;4954231;29;20486;-57
2022/06/16 13:53:24;;;;;;;3.10;1.50;;;;;;;;;;4953637;29;20513;-54
2022/06/16 13:56:04;;;;;;;1.90;1.70;;;;;;;;;;4954165;29;20417;-54
2022/06/16 13:58:34;;;;;;;3.83;1.30;;;;;;;;;;4953985;29;20472;-54
2022/06/16 14:01:20;;;;;;;6.40;2.10;;;;;;;;;;4953957;29;20412;-54
2022/06/16 14:04:07;;;;;;;2.67;1.90;;;;;;;;;;4953880;29;20437;-55
2022/06/16 14:06:33;;;;;;;1.63;1.53;;;;;;;;;;4952931;28;20413;-54
2022/06/16 14:09:09;;;;;;;3.30;1.93;;;;;;;;;;4953739;29;20461;-54
2022/06/16 14:11:37;;;;;;;1.80;1.60;;;;;;;;;;4953728;29;20401;-54
2022/06/16 14:14:06;;;;;;;2.60;1.70;;;;;;;;;;4953419;29;20409;-53
2022/06/16 14:16:40;;;;;;;2.10;1.50;;;;;;;;;;4953771;28;20874;-54
2022/06/16 14:19:15;;;;;;;1.90;1.60;;;;;;;;;;4953955;29;20402;-54
2022/06/16 14:21:45;;;;;;;3.00;1.70;;;;;;;;;;4953730;29;20410;-54
2022/06/16 14:24:18;;;;;;;6.70;1.47;;;;;;;;;;4953569;29;20448;-54
2022/06/16 14:26:45;;;;;;;3.17;2.30;;;;;;;;;;4954028;29;20422;-54
2022/06/16 14:29:15;;;;;;;1.80;1.70;;;;;;;;;;4953632;29;20398;-53
2022/06/16 14:31:43;;;;;;;2.10;1.90;;;;;;;;;;4953566;29;20456;-53
2022/06/16 14:34:30;;;;;;;2.03;1.83;;;;;;;;;;4953988;29;20492;-53
2022/06/16 14:37:01;;;;;;;1.80;1.70;;;;;;;;;;4936110;29;20413;-55
2022/06/16 14:39:31;;;;;;;2.40;1.87;;;;;;;;;;4953904;29;20553;-54
2022/06/16 14:42:04;;;;;;;3.63;2.37;;;;;;;;;;4953347;29;20430;-55
2022/06/16 14:44:50;;;;;;;2.00;1.80;;;;;;;;;;4953556;29;20413;-54
2022/06/16 14:47:29;;;;;;;1.67;1.33;;;;;;;;;;4956056;28;20781;-54
2022/06/16 14:49:55;;;;;;;2.90;1.77;;;;;;;;;;4957478;28;20404;-53
2022/06/16 14:52:23;;;;;;;3.00;2.80;;;;;;;;;;4957101;29;20417;-54
2022/06/16 14:54:57;;;;;;;3.47;1.87;;;;;;;;;;4957441;28;20521;-54
2022/06/16 14:57:25;;;;;;;2.57;2.03;;;;;;;;;;4957332;28;20401;-54
2022/06/16 15:00:00;;;;;;;2.20;2.00;;;;;;;;;;4957675;29;20894;-54
2022/06/16 15:02:30;;;;;;;2.07;1.80;;;;;;;;;;4956838;29;20433;-54
2022/06/16 15:05:08;;;;;;;1.93;1.67;;;;;;;;;;4959851;28;20449;-54
2022/06/16 15:07:35;;;;;;;2.57;1.70;;;;;;;;;;4957044;29;20480;-55
2022/06/16 15:10:01;;;;;;;1.87;1.63;;;;;;;;;;4956984;29;20500;-56
2022/06/16 15:12:29;;;;;;;2.90;1.90;;;;;;;;;;4956636;29;20921;-55
2022/06/16 15:14:55;;;;;;;2.33;2.13;;;;;;;;;;4957179;29;20484;-54
2022/06/16 15:20:10;;;;;;;2.20;2.00;;;;;;;;;;4956948;29;20470;-54
2022/06/16 15:22:42;;;;;;;1.83;1.63;;;;;;;;;;4956630;29;20431;-54
2022/06/16 15:25:11;;;;;;;4.20;3.47;;;;;;;;;;4956766;29;20416;-54
2022/06/16 15:27:46;;;;;;;3.90;1.90;;;;;;;;;;4956703;29;20453;-54